sensor_id;sensor_type;location;lat;lon;timestamp;P1;durP1;ratioP1;P2;durP2;ratioP2
13311;SDS011;34033;48.672;9.376;2023-02-22T00:00:34;10.37;;;4.90;;
13311;SDS011;34033;48.672;9.376;2023-02-22T00:03:11;5.27;;;4.53;;
13311;SDS011;34033;48.672;9.376;2023-02-22T00:05:42;8.23;;;4.63;;
13311;SDS011;34033;48.672;9.376;2023-02-22T00:08:11;6.63;;;4.67;;
13311;SDS011;34033;48.672;9.376;2023-02-22T00:10:40;6.60;;;4.47;;
13311;SDS011;34033;48.672;9.376;2023-02-22T00:13:07;5.57;;;4.33;;
13311;SDS011;34033;48.672;9.376;2023-02-22T00:15:34;7.20;;;4.57;;
13311;SDS011;34033;48.672;9.376;2023-02-22T00:17:59;8.43;;;4.73;;
13311;SDS011;34033;48.672;9.376;2023-02-22T00:20:25;7.70;;;4.60;;
13311;SDS011;34033;48.672;9.376;2023-02-22T00:22:51;6.03;;;4.40;;
13311;SDS011;34033;48.672;9.376;2023-02-22T00:25:18;5.07;;;4.10;;
13311;SDS011;34033;48.672;9.376;2023-02-22T00:27:45;7.27;;;4.50;;
13311;SDS011;34033;48.672;9.376;2023-02-22T00:30:21;8.93;;;4.53;;
13311;SDS011;34033;48.672;9.376;2023-02-22T00:32:49;4.33;;;3.67;;
13311;SDS011;34033;48.672;9.376;2023-02-22T00:35:16;7.87;;;4.50;;
13311;SDS011;34033;48.672;9.376;2023-02-22T00:37:46;6.57;;;4.53;;
13311;SDS011;34033;48.672;9.376;2023-02-22T00:40:19;7.13;;;4.33;;
13311;SDS011;34033;48.672;9.376;2023-02-22T00:42:46;6.07;;;4.10;;
13311;SDS011;34033;48.672;9.376;2023-02-22T00:45:12;7.87;;;3.90;;
13311;SDS011;34033;48.672;9.376;2023-02-22T00:47:40;7.93;;;4.40;;
13311;SDS011;34033;48.672;9.376;2023-02-22T00:50:06;9.83;;;4.43;;
13311;SDS011;34033;48.672;9.376;2023-02-22T00:52:32;7.07;;;4.17;;
13311;SDS011;34033;48.672;9.376;2023-02-22T00:54:57;8.10;;;4.33;;
13311;SDS011;34033;48.672;9.376;2023-02-22T00:57:23;8.23;;;4.37;;
13311;SDS011;34033;48.672;9.376;2023-02-22T00:59:49;5.80;;;4.23;;
13311;SDS011;34033;48.672;9.376;2023-02-22T01:02:15;7.23;;;4.53;;
13311;SDS011;34033;48.672;9.376;2023-02-22T01:04:40;4.80;;;3.93;;
13311;SDS011;34033;48.672;9.376;2023-02-22T01:07:06;7.30;;;4.23;;
13311;SDS011;34033;48.672;9.376;2023-02-22T01:09:31;8.00;;;4.20;;
13311;SDS011;34033;48.672;9.376;2023-02-22T01:11:57;6.80;;;4.23;;
13311;SDS011;34033;48.672;9.376;2023-02-22T01:14:23;5.17;;;4.10;;
13311;SDS011;34033;48.672;9.376;2023-02-22T01:16:53;4.47;;;3.70;;
13311;SDS011;34033;48.672;9.376;2023-02-22T01:19:20;4.87;;;3.83;;
13311;SDS011;34033;48.672;9.376;2023-02-22T01:21:47;6.27;;;4.17;;
13311;SDS011;34033;48.672;9.376;2023-02-22T01:24:13;5.53;;;4.30;;
13311;SDS011;34033;48.672;9.376;2023-02-22T01:26:47;6.53;;;4.07;;
13311;SDS011;34033;48.672;9.376;2023-02-22T01:29:14;7.73;;;4.53;;
13311;SDS011;34033;48.672;9.376;2023-02-22T01:31:42;7.27;;;4.60;;
13311;SDS011;34033;48.672;9.376;2023-02-22T01:34:15;5.83;;;4.20;;
13311;SDS011;34033;48.672;9.376;2023-02-22T01:36:41;7.10;;;4.27;;
13311;SDS011;34033;48.672;9.376;2023-02-22T01:39:06;5.60;;;4.30;;
13311;SDS011;34033;48.672;9.376;2023-02-22T01:41:34;8.67;;;4.33;;
13311;SDS011;34033;48.672;9.376;2023-02-22T01:44:19;7.23;;;4.57;;
13311;SDS011;34033;48.672;9.376;2023-02-22T01:46:54;7.43;;;4.03;;
13311;SDS011;34033;48.672;9.376;2023-02-22T01:49:20;7.03;;;4.50;;
13311;SDS011;34033;48.672;9.376;2023-02-22T01:51:50;6.23;;;4.00;;
13311;SDS011;34033;48.672;9.376;2023-02-22T01:54:33;6.97;;;3.97;;
13311;SDS011;34033;48.672;9.376;2023-02-22T01:57:05;4.53;;;3.67;;
13311;SDS011;34033;48.672;9.376;2023-02-22T01:59:35;5.77;;;3.63;;
13311;SDS011;34033;48.672;9.376;2023-02-22T02:02:04;5.53;;;3.70;;
13311;SDS011;34033;48.672;9.376;2023-02-22T02:04:29;5.60;;;3.63;;
13311;SDS011;34033;48.672;9.376;2023-02-22T02:06:57;4.47;;;3.53;;
13311;SDS011;34033;48.672;9.376;2023-02-22T02:09:27;4.53;;;3.50;;
13311;SDS011;34033;48.672;9.376;2023-02-22T02:11:55;3.77;;;3.43;;
13311;SDS011;34033;48.672;9.376;2023-02-22T02:14:25;3.80;;;3.27;;
13311;SDS011;34033;48.672;9.376;2023-02-22T02:16:51;4.80;;;3.53;;
13311;SDS011;34033;48.672;9.376;2023-02-22T02:38:59;3.47;;;3.10;;
13311;SDS011;34033;48.672;9.376;2023-02-22T02:41:47;5.07;;;3.40;;
13311;SDS011;34033;48.672;9.376;2023-02-22T02:47:01;3.50;;;3.20;;
13311;SDS011;34033;48.672;9.376;2023-02-22T02:49:36;6.17;;;3.47;;
13311;SDS011;34033;48.672;9.376;2023-02-22T02:52:08;3.80;;;3.03;;
13311;SDS011;34033;48.672;9.376;2023-02-22T02:54:38;6.03;;;3.50;;
13311;SDS011;34033;48.672;9.376;2023-02-22T02:57:04;4.27;;;3.40;;
13311;SDS011;34033;48.672;9.376;2023-02-22T02:59:32;3.43;;;3.13;;
13311;SDS011;34033;48.672;9.376;2023-02-22T03:07:18;3.60;;;3.30;;
13311;SDS011;34033;48.672;9.376;2023-02-22T03:18:31;3.50;;;2.93;;
13311;SDS011;34033;48.672;9.376;2023-02-22T03:23:41;5.67;;;4.10;;
13311;SDS011;34033;48.672;9.376;2023-02-22T03:26:16;6.03;;;3.67;;
13311;SDS011;34033;48.672;9.376;2023-02-22T03:28:48;5.37;;;3.93;;
13311;SDS011;34033;48.672;9.376;2023-02-22T03:31:18;6.17;;;4.00;;
13311;SDS011;34033;48.672;9.376;2023-02-22T03:37:13;7.70;;;4.80;;
13311;SDS011;34033;48.672;9.376;2023-02-22T03:39:40;10.23;;;4.90;;
13311;SDS011;34033;48.672;9.376;2023-02-22T03:42:08;5.17;;;4.00;;
13311;SDS011;34033;48.672;9.376;2023-02-22T03:44:37;5.67;;;3.80;;
13311;SDS011;34033;48.672;9.376;2023-02-22T03:47:06;7.13;;;4.37;;
13311;SDS011;34033;48.672;9.376;2023-02-22T03:49:37;5.67;;;4.37;;
13311;SDS011;34033;48.672;9.376;2023-02-22T03:52:09;5.77;;;4.07;;
13311;SDS011;34033;48.672;9.376;2023-02-22T03:54:36;5.53;;;3.63;;
13311;SDS011;34033;48.672;9.376;2023-02-22T03:57:04;5.77;;;4.07;;
13311;SDS011;34033;48.672;9.376;2023-02-22T03:59:34;6.33;;;4.23;;
13311;SDS011;34033;48.672;9.376;2023-02-22T04:02:00;4.93;;;4.07;;
13311;SDS011;34033;48.672;9.376;2023-02-22T04:04:26;6.33;;;3.90;;
13311;SDS011;34033;48.672;9.376;2023-02-22T04:06:51;3.43;;;3.03;;
13311;SDS011;34033;48.672;9.376;2023-02-22T04:09:17;3.17;;;2.77;;
13311;SDS011;34033;48.672;9.376;2023-02-22T04:11:43;3.60;;;3.10;;
13311;SDS011;34033;48.672;9.376;2023-02-22T04:14:08;3.70;;;3.20;;
13311;SDS011;34033;48.672;9.376;2023-02-22T04:16:33;9.10;;;2.90;;
13311;SDS011;34033;48.672;9.376;2023-02-22T04:18:59;3.90;;;3.00;;
13311;SDS011;34033;48.672;9.376;2023-02-22T04:21:24;3.77;;;2.97;;
13311;SDS011;34033;48.672;9.376;2023-02-22T04:23:49;4.03;;;3.00;;
13311;SDS011;34033;48.672;9.376;2023-02-22T04:26:15;3.33;;;2.60;;
13311;SDS011;34033;48.672;9.376;2023-02-22T04:28:41;4.63;;;2.73;;
13311;SDS011;34033;48.672;9.376;2023-02-22T04:31:06;3.33;;;2.80;;
13311;SDS011;34033;48.672;9.376;2023-02-22T04:33:31;2.80;;;2.60;;
13311;SDS011;34033;48.672;9.376;2023-02-22T04:35:57;4.73;;;3.00;;
13311;SDS011;34033;48.672;9.376;2023-02-22T04:38:23;4.90;;;3.00;;
13311;SDS011;34033;48.672;9.376;2023-02-22T04:40:52;5.40;;;3.00;;
13311;SDS011;34033;48.672;9.376;2023-02-22T04:43:18;4.30;;;3.20;;
13311;SDS011;34033;48.672;9.376;2023-02-22T04:45:44;3.63;;;3.27;;
13311;SDS011;34033;48.672;9.376;2023-02-22T04:48:10;6.50;;;3.50;;
13311;SDS011;34033;48.672;9.376;2023-02-22T04:50:35;4.60;;;3.03;;
13311;SDS011;34033;48.672;9.376;2023-02-22T04:53:01;3.47;;;2.90;;
13311;SDS011;34033;48.672;9.376;2023-02-22T04:55:26;4.00;;;3.20;;
13311;SDS011;34033;48.672;9.376;2023-02-22T04:57:52;3.60;;;3.17;;
13311;SDS011;34033;48.672;9.376;2023-02-22T05:00:18;3.70;;;3.23;;
13311;SDS011;34033;48.672;9.376;2023-02-22T05:02:45;4.90;;;3.40;;
13311;SDS011;34033;48.672;9.376;2023-02-22T05:05:12;3.30;;;2.90;;
13311;SDS011;34033;48.672;9.376;2023-02-22T05:07:45;4.07;;;2.87;;
13311;SDS011;34033;48.672;9.376;2023-02-22T05:10:11;4.03;;;3.20;;
13311;SDS011;34033;48.672;9.376;2023-02-22T05:12:37;4.27;;;3.37;;
13311;SDS011;34033;48.672;9.376;2023-02-22T05:15:04;2.97;;;2.70;;
13311;SDS011;34033;48.672;9.376;2023-02-22T05:17:31;4.20;;;2.87;;
13311;SDS011;34033;48.672;9.376;2023-02-22T05:19:56;5.47;;;3.30;;
13311;SDS011;34033;48.672;9.376;2023-02-22T05:22:21;5.03;;;3.23;;
13311;SDS011;34033;48.672;9.376;2023-02-22T05:24:48;4.57;;;2.93;;
13311;SDS011;34033;48.672;9.376;2023-02-22T05:27:16;4.83;;;3.20;;
13311;SDS011;34033;48.672;9.376;2023-02-22T05:29:41;3.33;;;2.77;;
13311;SDS011;34033;48.672;9.376;2023-02-22T05:32:07;3.37;;;3.03;;
13311;SDS011;34033;48.672;9.376;2023-02-22T05:34:32;3.87;;;3.10;;
13311;SDS011;34033;48.672;9.376;2023-02-22T05:36:57;3.13;;;2.77;;
13311;SDS011;34033;48.672;9.376;2023-02-22T05:39:23;5.07;;;3.67;;
13311;SDS011;34033;48.672;9.376;2023-02-22T05:41:48;5.37;;;3.30;;
13311;SDS011;34033;48.672;9.376;2023-02-22T05:44:14;3.17;;;2.80;;
13311;SDS011;34033;48.672;9.376;2023-02-22T05:46:39;3.30;;;3.00;;
13311;SDS011;34033;48.672;9.376;2023-02-22T05:49:04;4.17;;;3.27;;
13311;SDS011;34033;48.672;9.376;2023-02-22T05:51:30;4.80;;;3.07;;
13311;SDS011;34033;48.672;9.376;2023-02-22T05:53:55;4.03;;;3.10;;
13311;SDS011;34033;48.672;9.376;2023-02-22T05:56:21;4.90;;;3.67;;
13311;SDS011;34033;48.672;9.376;2023-02-22T05:58:48;5.10;;;3.50;;
13311;SDS011;34033;48.672;9.376;2023-02-22T06:01:14;4.63;;;3.33;;
13311;SDS011;34033;48.672;9.376;2023-02-22T06:03:39;4.30;;;3.30;;
13311;SDS011;34033;48.672;9.376;2023-02-22T06:06:04;6.63;;;3.90;;
13311;SDS011;34033;48.672;9.376;2023-02-22T06:08:30;5.57;;;3.70;;
13311;SDS011;34033;48.672;9.376;2023-02-22T06:10:55;6.47;;;3.70;;
13311;SDS011;34033;48.672;9.376;2023-02-22T06:13:20;4.13;;;3.33;;
13311;SDS011;34033;48.672;9.376;2023-02-22T06:15:46;7.47;;;3.83;;
13311;SDS011;34033;48.672;9.376;2023-02-22T06:18:11;4.37;;;3.37;;
13311;SDS011;34033;48.672;9.376;2023-02-22T06:20:36;3.57;;;3.17;;
13311;SDS011;34033;48.672;9.376;2023-02-22T06:23:02;8.03;;;4.00;;
13311;SDS011;34033;48.672;9.376;2023-02-22T06:25:28;6.87;;;3.57;;
13311;SDS011;34033;48.672;9.376;2023-02-22T06:27:58;3.90;;;3.40;;
13311;SDS011;34033;48.672;9.376;2023-02-22T06:30:24;5.30;;;3.77;;
13311;SDS011;34033;48.672;9.376;2023-02-22T06:32:50;5.67;;;3.60;;
13311;SDS011;34033;48.672;9.376;2023-02-22T06:35:16;6.30;;;3.73;;
13311;SDS011;34033;48.672;9.376;2023-02-22T06:37:42;5.00;;;3.97;;
13311;SDS011;34033;48.672;9.376;2023-02-22T06:40:08;4.37;;;3.07;;
13311;SDS011;34033;48.672;9.376;2023-02-22T06:42:35;7.50;;;3.67;;
13311;SDS011;34033;48.672;9.376;2023-02-22T06:45:01;6.40;;;3.63;;
13311;SDS011;34033;48.672;9.376;2023-02-22T06:47:26;5.17;;;3.50;;
13311;SDS011;34033;48.672;9.376;2023-02-22T06:49:52;5.20;;;3.73;;
13311;SDS011;34033;48.672;9.376;2023-02-22T06:52:18;5.17;;;3.53;;
13311;SDS011;34033;48.672;9.376;2023-02-22T06:54:44;3.80;;;3.23;;
13311;SDS011;34033;48.672;9.376;2023-02-22T06:57:09;5.90;;;4.03;;
13311;SDS011;34033;48.672;9.376;2023-02-22T06:59:34;4.37;;;3.30;;
13311;SDS011;34033;48.672;9.376;2023-02-22T07:02:00;5.70;;;4.60;;
13311;SDS011;34033;48.672;9.376;2023-02-22T07:04:27;8.50;;;5.63;;
13311;SDS011;34033;48.672;9.376;2023-02-22T07:06:53;6.83;;;4.80;;
13311;SDS011;34033;48.672;9.376;2023-02-22T07:09:18;8.83;;;5.33;;
13311;SDS011;34033;48.672;9.376;2023-02-22T07:11:43;6.53;;;4.73;;
13311;SDS011;34033;48.672;9.376;2023-02-22T07:14:09;6.97;;;4.07;;
13311;SDS011;34033;48.672;9.376;2023-02-22T07:16:34;5.90;;;4.20;;
13311;SDS011;34033;48.672;9.376;2023-02-22T07:19:00;14.53;;;5.00;;
13311;SDS011;34033;48.672;9.376;2023-02-22T07:21:26;5.03;;;3.87;;
13311;SDS011;34033;48.672;9.376;2023-02-22T07:23:53;5.30;;;4.07;;
13311;SDS011;34033;48.672;9.376;2023-02-22T07:26:20;4.80;;;4.23;;
13311;SDS011;34033;48.672;9.376;2023-02-22T07:28:47;9.43;;;5.10;;
13311;SDS011;34033;48.672;9.376;2023-02-22T07:31:13;6.53;;;4.40;;
13311;SDS011;34033;48.672;9.376;2023-02-22T07:33:39;7.43;;;4.13;;
13311;SDS011;34033;48.672;9.376;2023-02-22T07:36:04;4.93;;;3.60;;
13311;SDS011;34033;48.672;9.376;2023-02-22T07:38:30;8.13;;;4.37;;
13311;SDS011;34033;48.672;9.376;2023-02-22T07:40:55;5.37;;;3.87;;
13311;SDS011;34033;48.672;9.376;2023-02-22T07:43:22;8.07;;;4.00;;
13311;SDS011;34033;48.672;9.376;2023-02-22T07:45:50;5.10;;;4.17;;
13311;SDS011;34033;48.672;9.376;2023-02-22T07:48:17;4.50;;;3.57;;
13311;SDS011;34033;48.672;9.376;2023-02-22T07:50:44;4.00;;;3.60;;
13311;SDS011;34033;48.672;9.376;2023-02-22T07:56:07;6.90;;;4.10;;
13311;SDS011;34033;48.672;9.376;2023-02-22T07:58:33;5.53;;;4.00;;
13311;SDS011;34033;48.672;9.376;2023-02-22T08:00:59;5.27;;;4.00;;
13311;SDS011;34033;48.672;9.376;2023-02-22T08:03:29;5.00;;;3.60;;
13311;SDS011;34033;48.672;9.376;2023-02-22T08:05:58;6.10;;;3.97;;
13311;SDS011;34033;48.672;9.376;2023-02-22T08:08:24;4.63;;;3.73;;
13311;SDS011;34033;48.672;9.376;2023-02-22T08:10:50;3.40;;;3.10;;
13311;SDS011;34033;48.672;9.376;2023-02-22T08:13:16;6.10;;;3.70;;
13311;SDS011;34033;48.672;9.376;2023-02-22T08:15:42;5.23;;;3.97;;
13311;SDS011;34033;48.672;9.376;2023-02-22T08:18:12;5.33;;;3.70;;
13311;SDS011;34033;48.672;9.376;2023-02-22T08:20:40;4.70;;;3.60;;
13311;SDS011;34033;48.672;9.376;2023-02-22T08:23:07;4.40;;;3.67;;
13311;SDS011;34033;48.672;9.376;2023-02-22T08:25:34;6.50;;;3.47;;
13311;SDS011;34033;48.672;9.376;2023-02-22T08:28:07;4.03;;;3.20;;
13311;SDS011;34033;48.672;9.376;2023-02-22T08:30:35;3.77;;;3.23;;
13311;SDS011;34033;48.672;9.376;2023-02-22T08:33:01;6.10;;;3.60;;
13311;SDS011;34033;48.672;9.376;2023-02-22T08:35:28;4.30;;;3.50;;
13311;SDS011;34033;48.672;9.376;2023-02-22T08:37:57;6.20;;;3.80;;
13311;SDS011;34033;48.672;9.376;2023-02-22T08:40:24;4.60;;;3.53;;
13311;SDS011;34033;48.672;9.376;2023-02-22T08:42:52;3.80;;;3.40;;
13311;SDS011;34033;48.672;9.376;2023-02-22T08:45:18;4.63;;;3.77;;
13311;SDS011;34033;48.672;9.376;2023-02-22T08:47:44;5.13;;;3.50;;
13311;SDS011;34033;48.672;9.376;2023-02-22T08:50:14;4.17;;;3.77;;
13311;SDS011;34033;48.672;9.376;2023-02-22T08:52:50;4.47;;;3.63;;
13311;SDS011;34033;48.672;9.376;2023-02-22T08:55:22;4.30;;;3.73;;
13311;SDS011;34033;48.672;9.376;2023-02-22T08:57:50;9.73;;;4.07;;
13311;SDS011;34033;48.672;9.376;2023-02-22T09:00:16;4.80;;;3.90;;
13311;SDS011;34033;48.672;9.376;2023-02-22T09:02:43;4.77;;;3.90;;
13311;SDS011;34033;48.672;9.376;2023-02-22T09:05:08;5.10;;;3.87;;
13311;SDS011;34033;48.672;9.376;2023-02-22T09:07:33;3.83;;;3.37;;
13311;SDS011;34033;48.672;9.376;2023-02-22T09:09:59;4.93;;;3.70;;
13311;SDS011;34033;48.672;9.376;2023-02-22T09:12:24;6.80;;;4.00;;
13311;SDS011;34033;48.672;9.376;2023-02-22T09:14:49;4.03;;;3.33;;
13311;SDS011;34033;48.672;9.376;2023-02-22T09:17:15;5.30;;;3.83;;
13311;SDS011;34033;48.672;9.376;2023-02-22T09:19:40;4.53;;;3.90;;
13311;SDS011;34033;48.672;9.376;2023-02-22T09:22:06;6.63;;;4.10;;
13311;SDS011;34033;48.672;9.376;2023-02-22T09:24:31;5.93;;;4.20;;
13311;SDS011;34033;48.672;9.376;2023-02-22T09:26:56;5.50;;;4.13;;
13311;SDS011;34033;48.672;9.376;2023-02-22T09:29:25;7.63;;;3.93;;
13311;SDS011;34033;48.672;9.376;2023-02-22T09:31:52;5.67;;;3.97;;
13311;SDS011;34033;48.672;9.376;2023-02-22T09:34:18;4.90;;;3.70;;
13311;SDS011;34033;48.672;9.376;2023-02-22T09:36:46;7.93;;;4.23;;
13311;SDS011;34033;48.672;9.376;2023-02-22T09:39:13;8.47;;;4.33;;
13311;SDS011;34033;48.672;9.376;2023-02-22T09:41:55;5.30;;;3.90;;
13311;SDS011;34033;48.672;9.376;2023-02-22T09:47:40;5.73;;;3.57;;
13311;SDS011;34033;48.672;9.376;2023-02-22T09:50:11;8.90;;;4.57;;
13311;SDS011;34033;48.672;9.376;2023-02-22T09:52:44;3.87;;;3.40;;
13311;SDS011;34033;48.672;9.376;2023-02-22T09:55:19;6.87;;;3.97;;
13311;SDS011;34033;48.672;9.376;2023-02-22T09:57:49;5.90;;;3.90;;
13311;SDS011;34033;48.672;9.376;2023-02-22T10:00:20;4.17;;;3.60;;
13311;SDS011;34033;48.672;9.376;2023-02-22T10:06:08;5.03;;;3.70;;
13311;SDS011;34033;48.672;9.376;2023-02-22T10:08:35;8.20;;;3.90;;
13311;SDS011;34033;48.672;9.376;2023-02-22T10:19:20;4.10;;;3.70;;
13311;SDS011;34033;48.672;9.376;2023-02-22T10:27:31;7.60;;;4.30;;
13311;SDS011;34033;48.672;9.376;2023-02-22T10:30:20;5.23;;;3.87;;
13311;SDS011;34033;48.672;9.376;2023-02-22T10:32:49;6.50;;;4.20;;
13311;SDS011;34033;48.672;9.376;2023-02-22T10:35:23;9.87;;;3.70;;
13311;SDS011;34033;48.672;9.376;2023-02-22T10:37:56;4.73;;;3.80;;
13311;SDS011;34033;48.672;9.376;2023-02-22T10:40:26;6.63;;;4.43;;
13311;SDS011;34033;48.672;9.376;2023-02-22T10:43:04;4.63;;;4.03;;
13311;SDS011;34033;48.672;9.376;2023-02-22T10:45:33;8.60;;;4.47;;
13311;SDS011;34033;48.672;9.376;2023-02-22T10:48:03;6.27;;;4.10;;
13311;SDS011;34033;48.672;9.376;2023-02-22T10:50:36;6.43;;;4.50;;
13311;SDS011;34033;48.672;9.376;2023-02-22T10:53:05;5.20;;;3.93;;
13311;SDS011;34033;48.672;9.376;2023-02-22T10:55:31;8.03;;;4.03;;
13311;SDS011;34033;48.672;9.376;2023-02-22T10:58:06;4.63;;;4.17;;
13311;SDS011;34033;48.672;9.376;2023-02-22T11:00:33;5.97;;;4.07;;
13311;SDS011;34033;48.672;9.376;2023-02-22T11:03:02;5.53;;;4.13;;
13311;SDS011;34033;48.672;9.376;2023-02-22T11:05:31;4.97;;;4.10;;
13311;SDS011;34033;48.672;9.376;2023-02-22T11:08:21;7.43;;;4.43;;
13311;SDS011;34033;48.672;9.376;2023-02-22T11:10:57;5.03;;;3.43;;
13311;SDS011;34033;48.672;9.376;2023-02-22T11:13:59;5.63;;;3.93;;
13311;SDS011;34033;48.672;9.376;2023-02-22T11:16:25;4.50;;;3.53;;
13311;SDS011;34033;48.672;9.376;2023-02-22T11:19:02;4.33;;;3.30;;
13311;SDS011;34033;48.672;9.376;2023-02-22T11:21:44;4.47;;;3.53;;
13311;SDS011;34033;48.672;9.376;2023-02-22T11:24:12;5.83;;;4.10;;
13311;SDS011;34033;48.672;9.376;2023-02-22T11:26:40;4.63;;;3.37;;
13311;SDS011;34033;48.672;9.376;2023-02-22T11:29:09;4.53;;;3.30;;
13311;SDS011;34033;48.672;9.376;2023-02-22T11:31:40;4.50;;;3.60;;
13311;SDS011;34033;48.672;9.376;2023-02-22T11:34:08;4.60;;;3.50;;
13311;SDS011;34033;48.672;9.376;2023-02-22T11:36:51;4.30;;;3.47;;
13311;SDS011;34033;48.672;9.376;2023-02-22T11:39:21;4.43;;;3.30;;
13311;SDS011;34033;48.672;9.376;2023-02-22T11:41:49;6.10;;;3.60;;
13311;SDS011;34033;48.672;9.376;2023-02-22T11:46:54;4.13;;;3.23;;
13311;SDS011;34033;48.672;9.376;2023-02-22T11:49:31;5.73;;;3.27;;
13311;SDS011;34033;48.672;9.376;2023-02-22T11:55:09;4.00;;;3.07;;
13311;SDS011;34033;48.672;9.376;2023-02-22T12:03:05;3.67;;;3.03;;
13311;SDS011;34033;48.672;9.376;2023-02-22T12:16:47;6.17;;;3.33;;
13311;SDS011;34033;48.672;9.376;2023-02-22T12:19:32;3.93;;;3.50;;
13311;SDS011;34033;48.672;9.376;2023-02-22T12:22:03;5.33;;;3.57;;
13311;SDS011;34033;48.672;9.376;2023-02-22T12:24:39;3.97;;;3.10;;
13311;SDS011;34033;48.672;9.376;2023-02-22T12:27:21;4.70;;;3.27;;
13311;SDS011;34033;48.672;9.376;2023-02-22T12:29:57;4.70;;;3.33;;
13311;SDS011;34033;48.672;9.376;2023-02-22T12:35:14;4.67;;;3.60;;
13311;SDS011;34033;48.672;9.376;2023-02-22T12:40:20;3.87;;;2.80;;
13311;SDS011;34033;48.672;9.376;2023-02-22T12:42:54;4.20;;;2.67;;
13311;SDS011;34033;48.672;9.376;2023-02-22T12:48:29;3.00;;;2.80;;
13311;SDS011;34033;48.672;9.376;2023-02-22T12:50:58;7.20;;;3.60;;
13311;SDS011;34033;48.672;9.376;2023-02-22T12:53:32;4.10;;;2.93;;
13311;SDS011;34033;48.672;9.376;2023-02-22T12:58:48;3.17;;;2.87;;
13311;SDS011;34033;48.672;9.376;2023-02-22T13:01:23;4.00;;;3.40;;
13311;SDS011;34033;48.672;9.376;2023-02-22T13:03:54;3.47;;;3.17;;
13311;SDS011;34033;48.672;9.376;2023-02-22T13:22:46;4.17;;;3.70;;
13311;SDS011;34033;48.672;9.376;2023-02-22T13:25:25;5.00;;;3.23;;
13311;SDS011;34033;48.672;9.376;2023-02-22T13:50:49;6.20;;;4.70;;
13311;SDS011;34033;48.672;9.376;2023-02-22T13:53:22;5.03;;;3.63;;
13311;SDS011;34033;48.672;9.376;2023-02-22T13:55:54;5.80;;;3.70;;
13311;SDS011;34033;48.672;9.376;2023-02-22T13:58:23;4.87;;;3.13;;
13311;SDS011;34033;48.672;9.376;2023-02-22T14:00:53;4.70;;;4.20;;
13311;SDS011;34033;48.672;9.376;2023-02-22T14:05:58;3.30;;;2.97;;
13311;SDS011;34033;48.672;9.376;2023-02-22T14:10:54;5.10;;;4.07;;
13311;SDS011;34033;48.672;9.376;2023-02-22T14:16:29;5.53;;;3.77;;
13311;SDS011;34033;48.672;9.376;2023-02-22T14:19:03;6.53;;;4.43;;
13311;SDS011;34033;48.672;9.376;2023-02-22T14:21:30;5.73;;;3.97;;
13311;SDS011;34033;48.672;9.376;2023-02-22T14:24:05;8.73;;;4.10;;
13311;SDS011;34033;48.672;9.376;2023-02-22T14:26:33;4.93;;;4.13;;
13311;SDS011;34033;48.672;9.376;2023-02-22T14:29:02;4.87;;;4.27;;
13311;SDS011;34033;48.672;9.376;2023-02-22T14:37:06;4.90;;;3.73;;
13311;SDS011;34033;48.672;9.376;2023-02-22T14:44:37;6.00;;;3.97;;
13311;SDS011;34033;48.672;9.376;2023-02-22T14:47:23;7.53;;;3.73;;
13311;SDS011;34033;48.672;9.376;2023-02-22T14:49:59;6.83;;;4.57;;
13311;SDS011;34033;48.672;9.376;2023-02-22T14:52:47;5.97;;;4.17;;
13311;SDS011;34033;48.672;9.376;2023-02-22T14:55:24;5.63;;;4.10;;
13311;SDS011;34033;48.672;9.376;2023-02-22T15:00:43;5.53;;;3.90;;
13311;SDS011;34033;48.672;9.376;2023-02-22T15:03:30;4.30;;;3.60;;
13311;SDS011;34033;48.672;9.376;2023-02-22T15:06:14;5.87;;;3.90;;
13311;SDS011;34033;48.672;9.376;2023-02-22T15:08:43;4.83;;;3.63;;
13311;SDS011;34033;48.672;9.376;2023-02-22T15:11:23;6.00;;;4.20;;
13311;SDS011;34033;48.672;9.376;2023-02-22T15:13:55;4.67;;;3.87;;
13311;SDS011;34033;48.672;9.376;2023-02-22T15:16:22;4.67;;;3.80;;
13311;SDS011;34033;48.672;9.376;2023-02-22T15:18:53;6.23;;;3.63;;
13311;SDS011;34033;48.672;9.376;2023-02-22T15:21:22;4.93;;;3.83;;
13311;SDS011;34033;48.672;9.376;2023-02-22T15:23:50;6.10;;;4.00;;
13311;SDS011;34033;48.672;9.376;2023-02-22T15:26:20;4.57;;;3.43;;
13311;SDS011;34033;48.672;9.376;2023-02-22T15:28:53;11.83;;;4.10;;
13311;SDS011;34033;48.672;9.376;2023-02-22T15:31:30;6.20;;;3.60;;
13311;SDS011;34033;48.672;9.376;2023-02-22T15:33:55;6.50;;;3.97;;
13311;SDS011;34033;48.672;9.376;2023-02-22T15:36:26;4.80;;;4.27;;
13311;SDS011;34033;48.672;9.376;2023-02-22T15:38:55;5.40;;;3.87;;
13311;SDS011;34033;48.672;9.376;2023-02-22T15:41:31;6.30;;;4.43;;
13311;SDS011;34033;48.672;9.376;2023-02-22T15:44:01;5.30;;;4.63;;
13311;SDS011;34033;48.672;9.376;2023-02-22T15:46:31;4.77;;;4.20;;
13311;SDS011;34033;48.672;9.376;2023-02-22T15:49:15;5.60;;;4.30;;
13311;SDS011;34033;48.672;9.376;2023-02-22T15:51:43;8.43;;;4.50;;
13311;SDS011;34033;48.672;9.376;2023-02-22T15:54:15;8.20;;;4.57;;
13311;SDS011;34033;48.672;9.376;2023-02-22T15:56:47;4.83;;;3.90;;
13311;SDS011;34033;48.672;9.376;2023-02-22T15:59:16;6.07;;;4.43;;
13311;SDS011;34033;48.672;9.376;2023-02-22T16:01:45;5.40;;;4.47;;
13311;SDS011;34033;48.672;9.376;2023-02-22T16:04:22;5.80;;;4.70;;
13311;SDS011;34033;48.672;9.376;2023-02-22T16:06:50;4.83;;;4.23;;
13311;SDS011;34033;48.672;9.376;2023-02-22T16:09:26;6.80;;;4.80;;
13311;SDS011;34033;48.672;9.376;2023-02-22T16:14:44;5.77;;;4.77;;
13311;SDS011;34033;48.672;9.376;2023-02-22T16:17:52;11.27;;;5.90;;
13311;SDS011;34033;48.672;9.376;2023-02-22T16:22:36;9.83;;;5.40;;
13311;SDS011;34033;48.672;9.376;2023-02-22T16:27:44;7.10;;;5.10;;
13311;SDS011;34033;48.672;9.376;2023-02-22T16:30:29;7.10;;;4.70;;
13311;SDS011;34033;48.672;9.376;2023-02-22T16:33:01;7.33;;;4.80;;
13311;SDS011;34033;48.672;9.376;2023-02-22T16:35:40;8.00;;;4.87;;
13311;SDS011;34033;48.672;9.376;2023-02-22T16:38:15;8.00;;;4.47;;
13311;SDS011;34033;48.672;9.376;2023-02-22T16:40:45;8.13;;;5.03;;
13311;SDS011;34033;48.672;9.376;2023-02-22T16:43:16;8.93;;;5.23;;
13311;SDS011;34033;48.672;9.376;2023-02-22T16:45:44;7.30;;;4.83;;
13311;SDS011;34033;48.672;9.376;2023-02-22T16:50:45;9.27;;;4.93;;
13311;SDS011;34033;48.672;9.376;2023-02-22T16:53:11;9.03;;;5.10;;
13311;SDS011;34033;48.672;9.376;2023-02-22T16:55:37;8.60;;;5.53;;
13311;SDS011;34033;48.672;9.376;2023-02-22T16:58:05;7.70;;;5.83;;
13311;SDS011;34033;48.672;9.376;2023-02-22T17:00:31;7.50;;;5.40;;
13311;SDS011;34033;48.672;9.376;2023-02-22T17:03:00;6.57;;;5.20;;
13311;SDS011;34033;48.672;9.376;2023-02-22T17:05:28;9.43;;;5.77;;
13311;SDS011;34033;48.672;9.376;2023-02-22T17:08:00;7.90;;;5.80;;
13311;SDS011;34033;48.672;9.376;2023-02-22T17:10:25;7.10;;;5.80;;
13311;SDS011;34033;48.672;9.376;2023-02-22T17:12:51;11.50;;;7.50;;
13311;SDS011;34033;48.672;9.376;2023-02-22T17:15:24;10.20;;;6.30;;
13311;SDS011;34033;48.672;9.376;2023-02-22T17:17:51;8.57;;;6.03;;
13311;SDS011;34033;48.672;9.376;2023-02-22T17:20:18;3.60;;;2.50;;
13311;SDS011;34033;48.672;9.376;2023-02-22T17:22:57;3.10;;;2.77;;
13311;SDS011;34033;48.672;9.376;2023-02-22T17:25:25;9.93;;;6.00;;
13311;SDS011;34033;48.672;9.376;2023-02-22T17:27:53;9.43;;;6.07;;
13311;SDS011;34033;48.672;9.376;2023-02-22T17:30:19;8.30;;;6.17;;
13311;SDS011;34033;48.672;9.376;2023-02-22T17:32:45;10.90;;;6.47;;
13311;SDS011;34033;48.672;9.376;2023-02-22T17:35:13;12.83;;;6.63;;
13311;SDS011;34033;48.672;9.376;2023-02-22T17:37:41;10.57;;;7.37;;
13311;SDS011;34033;48.672;9.376;2023-02-22T17:40:06;9.77;;;6.50;;
13311;SDS011;34033;48.672;9.376;2023-02-22T17:42:32;8.60;;;6.07;;
13311;SDS011;34033;48.672;9.376;2023-02-22T17:44:57;9.70;;;6.37;;
13311;SDS011;34033;48.672;9.376;2023-02-22T17:47:23;7.90;;;5.57;;
13311;SDS011;34033;48.672;9.376;2023-02-22T17:49:48;7.60;;;5.67;;